sensor_id;sensor_type;location;lat;lon;timestamp;P1;durP1;ratioP1;P2;durP2;ratioP2
46054;SDS011;31788;6.954;-71.872;2022-09-24T00:01:31;10.87;;;4.70;;
46054;SDS011;31788;6.954;-71.872;2022-09-24T00:04:00;7.90;;;4.40;;
46054;SDS011;31788;6.954;-71.872;2022-09-24T00:06:30;7.30;;;3.90;;
46054;SDS011;31788;6.954;-71.872;2022-09-24T00:09:02;4.33;;;3.00;;
46054;SDS011;31788;6.954;-71.872;2022-09-24T00:11:29;6.53;;;2.90;;
46054;SDS011;31788;6.954;-71.872;2022-09-24T00:13:57;11.07;;;2.90;;
46054;SDS011;31788;6.954;-71.872;2022-09-24T00:16:25;12.02;;;2.90;;
46054;SDS011;31788;6.954;-71.872;2022-09-24T00:18:56;7.65;;;2.90;;
46054;SDS011;31788;6.954;-71.872;2022-09-24T00:21:28;7.63;;;2.95;;
46054;SDS011;31788;6.954;-71.872;2022-09-24T00:23:59;9.57;;;3.30;;
46054;SDS011;31788;6.954;-71.872;2022-09-24T00:26:28;6.93;;;3.08;;
46054;SDS011;31788;6.954;-71.872;2022-09-24T00:29:14;7.90;;;3.00;;
46054;SDS011;31788;6.954;-71.872;2022-09-24T00:31:43;8.30;;;3.28;;
46054;SDS011;31788;6.954;-71.872;2022-09-24T00:34:10;8.27;;;3.00;;
46054;SDS011;31788;6.954;-71.872;2022-09-24T00:36:36;6.95;;;2.63;;
46054;SDS011;31788;6.954;-71.872;2022-09-24T00:39:07;6.63;;;2.60;;
46054;SDS011;31788;6.954;-71.872;2022-09-24T00:41:36;7.82;;;2.55;;
46054;SDS011;31788;6.954;-71.872;2022-09-24T00:50:16;6.25;;;2.60;;
46054;SDS011;31788;6.954;-71.872;2022-09-24T00:52:51;4.22;;;2.42;;
46054;SDS011;31788;6.954;-71.872;2022-09-24T00:55:29;5.63;;;2.95;;
46054;SDS011;31788;6.954;-71.872;2022-09-24T00:57:59;6.70;;;3.00;;
46054;SDS011;31788;6.954;-71.872;2022-09-24T01:00:28;9.30;;;3.37;;
46054;SDS011;31788;6.954;-71.872;2022-09-24T01:02:57;10.63;;;4.05;;
46054;SDS011;31788;6.954;-71.872;2022-09-24T01:05:27;6.22;;;3.50;;
46054;SDS011;31788;6.954;-71.872;2022-09-24T01:07:54;9.90;;;3.75;;
46054;SDS011;31788;6.954;-71.872;2022-09-24T01:10:26;7.65;;;3.88;;
46054;SDS011;31788;6.954;-71.872;2022-09-24T01:15:47;9.60;;;4.70;;
46054;SDS011;31788;6.954;-71.872;2022-09-24T01:21:03;7.68;;;4.30;;
46054;SDS011;31788;6.954;-71.872;2022-09-24T01:37:42;7.88;;;4.97;;
46054;SDS011;31788;6.954;-71.872;2022-09-24T01:40:11;8.35;;;4.72;;
46054;SDS011;31788;6.954;-71.872;2022-09-24T01:42:39;11.38;;;4.63;;
46054;SDS011;31788;6.954;-71.872;2022-09-24T01:45:09;8.18;;;4.60;;
46054;SDS011;31788;6.954;-71.872;2022-09-24T01:47:37;9.00;;;4.65;;
46054;SDS011;31788;6.954;-71.872;2022-09-24T01:50:06;8.30;;;4.97;;
46054;SDS011;31788;6.954;-71.872;2022-09-24T01:52:37;9.20;;;4.85;;
46054;SDS011;31788;6.954;-71.872;2022-09-24T01:55:11;8.10;;;4.93;;
46054;SDS011;31788;6.954;-71.872;2022-09-24T01:57:42;8.45;;;5.15;;
46054;SDS011;31788;6.954;-71.872;2022-09-24T02:00:14;7.00;;;4.50;;
46054;SDS011;31788;6.954;-71.872;2022-09-24T02:02:48;8.77;;;4.65;;
46054;SDS011;31788;6.954;-71.872;2022-09-24T02:05:31;7.38;;;4.22;;
46054;SDS011;31788;6.954;-71.872;2022-09-24T02:08:22;9.10;;;4.82;;
46054;SDS011;31788;6.954;-71.872;2022-09-24T02:11:38;8.82;;;4.57;;
46054;SDS011;31788;6.954;-71.872;2022-09-24T02:13:58;10.98;;;4.70;;
46054;SDS011;31788;6.954;-71.872;2022-09-24T02:16:40;8.50;;;4.13;;
46054;SDS011;31788;6.954;-71.872;2022-09-24T02:19:14;9.48;;;4.88;;
46054;SDS011;31788;6.954;-71.872;2022-09-24T02:21:45;7.73;;;4.67;;
46054;SDS011;31788;6.954;-71.872;2022-09-24T02:24:13;7.35;;;4.80;;
46054;SDS011;31788;6.954;-71.872;2022-09-24T02:26:44;8.70;;;4.28;;
46054;SDS011;31788;6.954;-71.872;2022-09-24T02:29:11;6.82;;;3.40;;
46054;SDS011;31788;6.954;-71.872;2022-09-24T02:31:42;6.18;;;3.30;;
46054;SDS011;31788;6.954;-71.872;2022-09-24T02:34:16;6.60;;;2.80;;
46054;SDS011;31788;6.954;-71.872;2022-09-24T02:36:46;8.52;;;2.75;;
46054;SDS011;31788;6.954;-71.872;2022-09-24T02:39:14;6.30;;;2.10;;
46054;SDS011;31788;6.954;-71.872;2022-09-24T02:41:44;6.13;;;2.25;;
46054;SDS011;31788;6.954;-71.872;2022-09-24T02:44:13;5.95;;;2.20;;
46054;SDS011;31788;6.954;-71.872;2022-09-24T02:46:41;6.90;;;2.10;;
46054;SDS011;31788;6.954;-71.872;2022-09-24T02:49:08;7.40;;;2.13;;
46054;SDS011;31788;6.954;-71.872;2022-09-24T02:51:36;5.28;;;2.10;;
46054;SDS011;31788;6.954;-71.872;2022-09-24T02:54:03;5.40;;;1.88;;
46054;SDS011;31788;6.954;-71.872;2022-09-24T02:56:30;5.85;;;1.90;;
46054;SDS011;31788;6.954;-71.872;2022-09-24T02:58:57;5.65;;;1.75;;
46054;SDS011;31788;6.954;-71.872;2022-09-24T03:01:25;5.60;;;1.85;;
46054;SDS011;31788;6.954;-71.872;2022-09-24T03:03:52;2.28;;;1.33;;
46054;SDS011;31788;6.954;-71.872;2022-09-24T03:06:18;3.47;;;1.33;;
46054;SDS011;31788;6.954;-71.872;2022-09-24T03:08:45;4.70;;;1.60;;
46054;SDS011;31788;6.954;-71.872;2022-09-24T03:11:12;3.60;;;1.35;;
46054;SDS011;31788;6.954;-71.872;2022-09-24T03:13:39;5.25;;;1.58;;
46054;SDS011;31788;6.954;-71.872;2022-09-24T03:16:05;5.07;;;1.60;;
46054;SDS011;31788;6.954;-71.872;2022-09-24T03:18:33;3.13;;;1.38;;
46054;SDS011;31788;6.954;-71.872;2022-09-24T03:21:01;4.07;;;1.45;;
46054;SDS011;31788;6.954;-71.872;2022-09-24T03:23:30;4.63;;;1.40;;
46054;SDS011;31788;6.954;-71.872;2022-09-24T03:25:57;3.92;;;1.27;;
46054;SDS011;31788;6.954;-71.872;2022-09-24T03:28:24;3.35;;;1.30;;
46054;SDS011;31788;6.954;-71.872;2022-09-24T03:30:51;3.75;;;1.15;;
46054;SDS011;31788;6.954;-71.872;2022-09-24T03:33:28;3.78;;;1.20;;
46054;SDS011;31788;6.954;-71.872;2022-09-24T03:38:32;4.53;;;1.00;;
46054;SDS011;31788;6.954;-71.872;2022-09-24T03:40:59;3.00;;;1.00;;
46054;SDS011;31788;6.954;-71.872;2022-09-24T03:43:27;1.93;;;1.00;;
46054;SDS011;31788;6.954;-71.872;2022-09-24T03:45:54;4.20;;;1.00;;
46054;SDS011;31788;6.954;-71.872;2022-09-24T03:48:21;2.80;;;1.03;;
46054;SDS011;31788;6.954;-71.872;2022-09-24T03:50:48;3.45;;;1.02;;
46054;SDS011;31788;6.954;-71.872;2022-09-24T03:53:15;3.00;;;0.90;;
46054;SDS011;31788;6.954;-71.872;2022-09-24T03:58:11;1.75;;;1.00;;
46054;SDS011;31788;6.954;-71.872;2022-09-24T04:00:38;1.80;;;0.80;;
46054;SDS011;31788;6.954;-71.872;2022-09-24T04:03:08;1.90;;;1.10;;
46054;SDS011;31788;6.954;-71.872;2022-09-24T04:05:35;1.42;;;0.85;;
46054;SDS011;31788;6.954;-71.872;2022-09-24T04:08:02;1.48;;;0.80;;
46054;SDS011;31788;6.954;-71.872;2022-09-24T04:10:31;2.47;;;0.80;;
46054;SDS011;31788;6.954;-71.872;2022-09-24T04:12:58;2.10;;;1.00;;
46054;SDS011;31788;6.954;-71.872;2022-09-24T04:15:27;3.05;;;1.10;;
46054;SDS011;31788;6.954;-71.872;2022-09-24T04:17:54;5.43;;;1.20;;
46054;SDS011;31788;6.954;-71.872;2022-09-24T04:20:24;3.65;;;0.93;;
46054;SDS011;31788;6.954;-71.872;2022-09-24T04:22:53;2.20;;;0.90;;
46054;SDS011;31788;6.954;-71.872;2022-09-24T04:25:21;2.38;;;1.00;;
46054;SDS011;31788;6.954;-71.872;2022-09-24T04:27:57;4.27;;;0.90;;
46054;SDS011;31788;6.954;-71.872;2022-09-24T04:30:25;2.10;;;1.08;;
46054;SDS011;31788;6.954;-71.872;2022-09-24T04:32:52;2.97;;;0.80;;
46054;SDS011;31788;6.954;-71.872;2022-09-24T04:35:20;1.63;;;1.00;;
46054;SDS011;31788;6.954;-71.872;2022-09-24T04:37:47;3.42;;;1.05;;
46054;SDS011;31788;6.954;-71.872;2022-09-24T04:40:15;2.33;;;1.03;;
46054;SDS011;31788;6.954;-71.872;2022-09-24T04:42:42;3.30;;;1.20;;
46054;SDS011;31788;6.954;-71.872;2022-09-24T04:45:11;1.85;;;1.02;;
46054;SDS011;31788;6.954;-71.872;2022-09-24T04:47:38;2.37;;;1.10;;
46054;SDS011;31788;6.954;-71.872;2022-09-24T04:50:07;3.92;;;1.10;;
46054;SDS011;31788;6.954;-71.872;2022-09-24T04:52:36;2.10;;;1.00;;
46054;SDS011;31788;6.954;-71.872;2022-09-24T04:55:03;2.15;;;1.10;;
46054;SDS011;31788;6.954;-71.872;2022-09-24T04:57:31;2.47;;;0.90;;
46054;SDS011;31788;6.954;-71.872;2022-09-24T04:59:59;2.15;;;1.10;;
46054;SDS011;31788;6.954;-71.872;2022-09-24T05:02:26;2.60;;;1.00;;
46054;SDS011;31788;6.954;-71.872;2022-09-24T05:04:53;1.65;;;1.10;;
46054;SDS011;31788;6.954;-71.872;2022-09-24T05:07:19;2.08;;;1.00;;
46054;SDS011;31788;6.954;-71.872;2022-09-24T05:09:46;2.53;;;1.25;;
46054;SDS011;31788;6.954;-71.872;2022-09-24T05:12:12;3.25;;;1.17;;
46054;SDS011;31788;6.954;-71.872;2022-09-24T05:14:39;3.28;;;1.10;;
46054;SDS011;31788;6.954;-71.872;2022-09-24T05:17:05;1.98;;;0.90;;
46054;SDS011;31788;6.954;-71.872;2022-09-24T05:19:32;2.53;;;1.00;;
46054;SDS011;31788;6.954;-71.872;2022-09-24T05:21:59;2.45;;;1.10;;
46054;SDS011;31788;6.954;-71.872;2022-09-24T05:24:25;3.30;;;0.80;;
46054;SDS011;31788;6.954;-71.872;2022-09-24T05:26:52;2.00;;;1.05;;
46054;SDS011;31788;6.954;-71.872;2022-09-24T05:29:40;2.00;;;0.93;;
46054;SDS011;31788;6.954;-71.872;2022-09-24T05:32:11;1.80;;;0.90;;
46054;SDS011;31788;6.954;-71.872;2022-09-24T05:34:41;2.10;;;0.90;;
46054;SDS011;31788;6.954;-71.872;2022-09-24T05:37:08;2.92;;;1.10;;
46054;SDS011;31788;6.954;-71.872;2022-09-24T05:39:36;1.80;;;0.90;;
46054;SDS011;31788;6.954;-71.872;2022-09-24T05:42:02;1.58;;;0.80;;
46054;SDS011;31788;6.954;-71.872;2022-09-24T05:44:29;2.45;;;0.90;;
46054;SDS011;31788;6.954;-71.872;2022-09-24T05:46:56;1.80;;;0.90;;
46054;SDS011;31788;6.954;-71.872;2022-09-24T05:49:23;2.20;;;0.88;;
46054;SDS011;31788;6.954;-71.872;2022-09-24T05:51:50;2.25;;;0.90;;
46054;SDS011;31788;6.954;-71.872;2022-09-24T05:54:17;3.03;;;0.90;;
46054;SDS011;31788;6.954;-71.872;2022-09-24T05:56:44;3.13;;;0.90;;
46054;SDS011;31788;6.954;-71.872;2022-09-24T05:59:11;3.40;;;0.80;;
46054;SDS011;31788;6.954;-71.872;2022-09-24T06:01:38;2.35;;;1.10;;
46054;SDS011;31788;6.954;-71.872;2022-09-24T06:04:04;5.03;;;1.30;;
46054;SDS011;31788;6.954;-71.872;2022-09-24T06:06:31;5.00;;;1.60;;
46054;SDS011;31788;6.954;-71.872;2022-09-24T06:08:58;4.60;;;1.37;;
46054;SDS011;31788;6.954;-71.872;2022-09-24T06:11:25;5.07;;;1.98;;
46054;SDS011;31788;6.954;-71.872;2022-09-24T06:13:59;5.77;;;1.73;;
46054;SDS011;31788;6.954;-71.872;2022-09-24T06:16:33;17.47;;;2.57;;
46054;SDS011;31788;6.954;-71.872;2022-09-24T06:18:59;835.67;;;55.20;;
46054;SDS011;31788;6.954;-71.872;2022-09-24T06:21:26;53.85;;;4.05;;
46054;SDS011;31788;6.954;-71.872;2022-09-24T06:23:52;16.85;;;1.73;;
46054;SDS011;31788;6.954;-71.872;2022-09-24T06:26:19;11.07;;;1.15;;
46054;SDS011;31788;6.954;-71.872;2022-09-24T06:28:45;5.60;;;0.88;;
46054;SDS011;31788;6.954;-71.872;2022-09-24T06:31:12;9.07;;;1.00;;
46054;SDS011;31788;6.954;-71.872;2022-09-24T06:33:39;4.13;;;1.00;;
46054;SDS011;31788;6.954;-71.872;2022-09-24T06:36:05;5.90;;;0.90;;
46054;SDS011;31788;6.954;-71.872;2022-09-24T06:38:32;4.78;;;0.90;;
46054;SDS011;31788;6.954;-71.872;2022-09-24T06:41:00;7.82;;;1.17;;
46054;SDS011;31788;6.954;-71.872;2022-09-24T06:43:29;4.93;;;1.00;;
46054;SDS011;31788;6.954;-71.872;2022-09-24T06:45:57;10.52;;;1.02;;
46054;SDS011;31788;6.954;-71.872;2022-09-24T06:48:26;3.50;;;0.60;;
46054;SDS011;31788;6.954;-71.872;2022-09-24T06:50:53;13.10;;;1.40;;
46054;SDS011;31788;6.954;-71.872;2022-09-24T06:53:20;2.65;;;0.50;;
46054;SDS011;31788;6.954;-71.872;2022-09-24T06:55:47;1.65;;;0.50;;
46054;SDS011;31788;6.954;-71.872;2022-09-24T06:58:15;3.28;;;0.93;;
46054;SDS011;31788;6.954;-71.872;2022-09-24T07:00:55;3.80;;;0.63;;
46054;SDS011;31788;6.954;-71.872;2022-09-24T07:03:24;7.82;;;0.88;;
46054;SDS011;31788;6.954;-71.872;2022-09-24T07:05:53;4.55;;;0.70;;
46054;SDS011;31788;6.954;-71.872;2022-09-24T07:08:20;4.40;;;0.60;;
46054;SDS011;31788;6.954;-71.872;2022-09-24T07:10:47;1.95;;;0.50;;
46054;SDS011;31788;6.954;-71.872;2022-09-24T07:13:14;16.02;;;1.48;;
46054;SDS011;31788;6.954;-71.872;2022-09-24T07:15:41;3.35;;;0.65;;
46054;SDS011;31788;6.954;-71.872;2022-09-24T07:18:10;3.33;;;0.73;;
46054;SDS011;31788;6.954;-71.872;2022-09-24T07:20:37;3.70;;;0.60;;
46054;SDS011;31788;6.954;-71.872;2022-09-24T07:23:04;4.80;;;0.90;;
46054;SDS011;31788;6.954;-71.872;2022-09-24T07:25:32;6.43;;;0.70;;
46054;SDS011;31788;6.954;-71.872;2022-09-24T07:28:20;9.10;;;1.10;;
46054;SDS011;31788;6.954;-71.872;2022-09-24T07:30:46;5.53;;;0.80;;
46054;SDS011;31788;6.954;-71.872;2022-09-24T07:33:25;2.53;;;0.70;;
46054;SDS011;31788;6.954;-71.872;2022-09-24T07:35:52;8.50;;;0.93;;
46054;SDS011;31788;6.954;-71.872;2022-09-24T07:38:18;1.50;;;0.43;;
46054;SDS011;31788;6.954;-71.872;2022-09-24T07:40:46;2.08;;;0.50;;
46054;SDS011;31788;6.954;-71.872;2022-09-24T07:43:13;2.42;;;0.68;;
46054;SDS011;31788;6.954;-71.872;2022-09-24T07:45:40;2.75;;;0.70;;
46054;SDS011;31788;6.954;-71.872;2022-09-24T07:48:08;4.25;;;0.60;;
46054;SDS011;31788;6.954;-71.872;2022-09-24T07:50:37;1.10;;;0.50;;
46054;SDS011;31788;6.954;-71.872;2022-09-24T07:53:05;2.33;;;0.40;;
46054;SDS011;31788;6.954;-71.872;2022-09-24T07:55:32;1.10;;;0.50;;
46054;SDS011;31788;6.954;-71.872;2022-09-24T07:58:03;3.00;;;0.40;;
46054;SDS011;31788;6.954;-71.872;2022-09-24T08:00:30;5.07;;;0.67;;
46054;SDS011;31788;6.954;-71.872;2022-09-24T08:02:56;1.00;;;0.40;;
46054;SDS011;31788;6.954;-71.872;2022-09-24T08:05:23;2.78;;;0.50;;
46054;SDS011;31788;6.954;-71.872;2022-09-24T08:07:50;1.45;;;0.40;;
46054;SDS011;31788;6.954;-71.872;2022-09-24T08:10:18;3.67;;;0.60;;
46054;SDS011;31788;6.954;-71.872;2022-09-24T08:12:45;1.08;;;0.40;;
46054;SDS011;31788;6.954;-71.872;2022-09-24T08:15:12;1.88;;;0.50;;
46054;SDS011;31788;6.954;-71.872;2022-09-24T08:17:40;2.45;;;0.50;;
46054;SDS011;31788;6.954;-71.872;2022-09-24T08:20:06;1.73;;;0.40;;
46054;SDS011;31788;6.954;-71.872;2022-09-24T08:22:34;2.90;;;0.60;;
46054;SDS011;31788;6.954;-71.872;2022-09-24T08:25:00;2.28;;;0.70;;
46054;SDS011;31788;6.954;-71.872;2022-09-24T08:27:28;1.38;;;0.40;;
46054;SDS011;31788;6.954;-71.872;2022-09-24T08:29:57;3.15;;;0.40;;
46054;SDS011;31788;6.954;-71.872;2022-09-24T08:32:25;2.60;;;0.50;;
46054;SDS011;31788;6.954;-71.872;2022-09-24T08:34:53;2.60;;;0.60;;
46054;SDS011;31788;6.954;-71.872;2022-09-24T08:37:20;3.83;;;0.30;;
46054;SDS011;31788;6.954;-71.872;2022-09-24T08:39:46;1.08;;;0.32;;
46054;SDS011;31788;6.954;-71.872;2022-09-24T08:45:15;1.15;;;0.30;;
46054;SDS011;31788;6.954;-71.872;2022-09-24T08:48:14;0.90;;;0.20;;
46054;SDS011;31788;6.954;-71.872;2022-09-24T08:50:57;1.35;;;0.40;;
46054;SDS011;31788;6.954;-71.872;2022-09-24T08:56:10;1.67;;;0.22;;
46054;SDS011;31788;6.954;-71.872;2022-09-24T09:01:30;2.20;;;0.20;;
46054;SDS011;31788;6.954;-71.872;2022-09-24T09:04:15;2.95;;;0.32;;
46054;SDS011;31788;6.954;-71.872;2022-09-24T09:07:05;1.10;;;0.20;;
46054;SDS011;31788;6.954;-71.872;2022-09-24T09:09:50;1.40;;;0.30;;
46054;SDS011;31788;6.954;-71.872;2022-09-24T09:12:36;1.40;;;0.28;;
46054;SDS011;31788;6.954;-71.872;2022-09-24T09:15:06;1.02;;;0.20;;
46054;SDS011;31788;6.954;-71.872;2022-09-24T09:17:45;0.50;;;0.20;;
46054;SDS011;31788;6.954;-71.872;2022-09-24T09:20:18;4.47;;;0.50;;
46054;SDS011;31788;6.954;-71.872;2022-09-24T09:22:58;1.70;;;0.20;;
46054;SDS011;31788;6.954;-71.872;2022-09-24T09:25:32;1.50;;;0.20;;
46054;SDS011;31788;6.954;-71.872;2022-09-24T09:28:09;1.38;;;0.30;;
46054;SDS011;31788;6.954;-71.872;2022-09-24T09:40:02;4.22;;;0.40;;
46054;SDS011;31788;6.954;-71.872;2022-09-24T09:42:24;2.17;;;0.30;;
46054;SDS011;31788;6.954;-71.872;2022-09-24T09:45:01;2.97;;;0.40;;
46054;SDS011;31788;6.954;-71.872;2022-09-24T09:47:42;3.38;;;0.40;;
46054;SDS011;31788;6.954;-71.872;2022-09-24T09:50:57;2.42;;;0.40;;
46054;SDS011;31788;6.954;-71.872;2022-09-24T09:53:19;6.82;;;0.50;;
46054;SDS011;31788;6.954;-71.872;2022-09-24T09:56:00;3.83;;;0.50;;
46054;SDS011;31788;6.954;-71.872;2022-09-24T09:58:40;2.33;;;0.43;;
46054;SDS011;31788;6.954;-71.872;2022-09-24T10:01:17;0.85;;;0.40;;
46054;SDS011;31788;6.954;-71.872;2022-09-24T10:06:11;3.40;;;0.70;;
46054;SDS011;31788;6.954;-71.872;2022-09-24T10:08:46;9.43;;;0.97;;
46054;SDS011;31788;6.954;-71.872;2022-09-24T10:11:13;1.48;;;0.30;;
46054;SDS011;31788;6.954;-71.872;2022-09-24T10:13:41;3.50;;;0.40;;
46054;SDS011;31788;6.954;-71.872;2022-09-24T10:16:09;2.10;;;0.40;;
46054;SDS011;31788;6.954;-71.872;2022-09-24T10:18:46;5.78;;;0.50;;
46054;SDS011;31788;6.954;-71.872;2022-09-24T10:21:29;3.65;;;0.40;;
46054;SDS011;31788;6.954;-71.872;2022-09-24T10:24:04;35.58;;;2.00;;
46054;SDS011;31788;6.954;-71.872;2022-09-24T10:26:40;2.25;;;0.30;;
46054;SDS011;31788;6.954;-71.872;2022-09-24T10:29:21;2.70;;;0.40;;
46054;SDS011;31788;6.954;-71.872;2022-09-24T10:32:14;2.42;;;0.30;;
46054;SDS011;31788;6.954;-71.872;2022-09-24T10:35:03;2.63;;;0.50;;
46054;SDS011;31788;6.954;-71.872;2022-09-24T10:37:51;2.05;;;0.70;;
46054;SDS011;31788;6.954;-71.872;2022-09-24T10:40:37;2.63;;;0.80;;
46054;SDS011;31788;6.954;-71.872;2022-09-24T10:43:05;4.70;;;0.80;;
46054;SDS011;31788;6.954;-71.872;2022-09-24T10:48:15;1.98;;;0.50;;
46054;SDS011;31788;6.954;-71.872;2022-09-24T10:50:55;2.25;;;0.47;;
46054;SDS011;31788;6.954;-71.872;2022-09-24T10:53:52;2.60;;;0.50;;
46054;SDS011;31788;6.954;-71.872;2022-09-24T10:56:43;2.90;;;0.77;;
46054;SDS011;31788;6.954;-71.872;2022-09-24T11:05:03;4.47;;;0.80;;
46054;SDS011;31788;6.954;-71.872;2022-09-24T11:10:18;2.75;;;0.60;;
46054;SDS011;31788;6.954;-71.872;2022-09-24T11:18:49;1.65;;;0.73;;
46054;SDS011;31788;6.954;-71.872;2022-09-24T11:21:43;3.28;;;0.70;;
46054;SDS011;31788;6.954;-71.872;2022-09-24T11:32:28;2.97;;;1.00;;
46054;SDS011;31788;6.954;-71.872;2022-09-24T11:35:06;5.47;;;0.98;;
46054;SDS011;31788;6.954;-71.872;2022-09-24T11:38:09;3.35;;;0.75;;
46054;SDS011;31788;6.954;-71.872;2022-09-24T11:51:14;6.53;;;1.00;;
46054;SDS011;31788;6.954;-71.872;2022-09-24T11:57:15;4.65;;;0.80;;
46054;SDS011;31788;6.954;-71.872;2022-09-24T12:00:06;4.67;;;0.80;;
46054;SDS011;31788;6.954;-71.872;2022-09-24T12:16:16;2.53;;;1.50;;
46054;SDS011;31788;6.954;-71.872;2022-09-24T12:21:36;8.30;;;3.80;;
46054;SDS011;31788;6.954;-71.872;2022-09-24T12:24:10;60.10;;;51.58;;
46054;SDS011;31788;6.954;-71.872;2022-09-24T12:26:59;123.20;;;107.10;;
46054;SDS011;31788;6.954;-71.872;2022-09-24T12:29:36;132.10;;;96.10;;
46054;SDS011;31788;6.954;-71.872;2022-09-24T12:38:07;48.38;;;41.35;;
46054;SDS011;31788;6.954;-71.872;2022-09-24T12:46:03;32.80;;;25.00;;
46054;SDS011;31788;6.954;-71.872;2022-09-24T12:48:36;36.60;;;29.85;;
46054;SDS011;31788;6.954;-71.872;2022-09-24T12:51:04;36.75;;;30.50;;
46054;SDS011;31788;6.954;-71.872;2022-09-24T12:53:35;20.00;;;15.87;;
46054;SDS011;31788;6.954;-71.872;2022-09-24T12:56:05;27.30;;;19.23;;
46054;SDS011;31788;6.954;-71.872;2022-09-24T12:58:38;19.80;;;15.17;;
46054;SDS011;31788;6.954;-71.872;2022-09-24T13:01:11;22.50;;;15.50;;
46054;SDS011;31788;6.954;-71.872;2022-09-24T13:04:04;10.50;;;8.27;;
46054;SDS011;31788;6.954;-71.872;2022-09-24T13:06:40;12.40;;;9.20;;
46054;SDS011;31788;6.954;-71.872;2022-09-24T13:18:00;11.68;;;6.68;;
46054;SDS011;31788;6.954;-71.872;2022-09-24T13:20:41;8.70;;;6.50;;
46054;SDS011;31788;6.954;-71.872;2022-09-24T13:26:06;14.65;;;4.30;;
46054;SDS011;31788;6.954;-71.872;2022-09-24T13:31:39;9.68;;;3.45;;
46054;SDS011;31788;6.954;-71.872;2022-09-24T13:36:53;7.80;;;3.53;;
46054;SDS011;31788;6.954;-71.872;2022-09-24T13:49:55;37.42;;;3.72;;
46054;SDS011;31788;6.954;-71.872;2022-09-24T13:52:34;7.53;;;2.47;;
46054;SDS011;31788;6.954;-71.872;2022-09-24T13:55:14;6.18;;;2.50;;
46054;SDS011;31788;6.954;-71.872;2022-09-24T13:57:45;7.70;;;2.25;;
46054;SDS011;31788;6.954;-71.872;2022-09-24T14:05:44;7.50;;;1.70;;
46054;SDS011;31788;6.954;-71.872;2022-09-24T14:08:12;3.65;;;1.50;;
46054;SDS011;31788;6.954;-71.872;2022-09-24T14:10:40;6.17;;;1.67;;
46054;SDS011;31788;6.954;-71.872;2022-09-24T14:15:52;5.10;;;1.30;;
46054;SDS011;31788;6.954;-71.872;2022-09-24T14:18:27;3.85;;;1.23;;
46054;SDS011;31788;6.954;-71.872;2022-09-24T14:21:07;4.40;;;1.30;;
46054;SDS011;31788;6.954;-71.872;2022-09-24T14:23:44;6.88;;;1.40;;
46054;SDS011;31788;6.954;-71.872;2022-09-24T14:29:14;42.40;;;2.60;;
46054;SDS011;31788;6.954;-71.872;2022-09-24T14:31:51;30.63;;;2.42;;
46054;SDS011;31788;6.954;-71.872;2022-09-24T14:34:25;34.95;;;2.30;;
46054;SDS011;31788;6.954;-71.872;2022-09-24T14:36:58;24.77;;;1.70;;
46054;SDS011;31788;6.954;-71.872;2022-09-24T14:39:42;30.60;;;2.08;;
46054;SDS011;31788;6.954;-71.872;2022-09-24T14:42:12;141.30;;;8.02;;
46054;SDS011;31788;6.954;-71.872;2022-09-24T14:44:47;38.30;;;2.40;;
46054;SDS011;31788;6.954;-71.872;2022-09-24T14:49:54;20.23;;;1.60;;
46054;SDS011;31788;6.954;-71.872;2022-09-24T14:52:29;14.93;;;1.30;;
46054;SDS011;31788;6.954;-71.872;2022-09-24T14:57:40;33.78;;;1.95;;
46054;SDS011;31788;6.954;-71.872;2022-09-24T15:03:05;12.70;;;1.00;;
46054;SDS011;31788;6.954;-71.872;2022-09-24T15:05:37;11.77;;;1.00;;
46054;SDS011;31788;6.954;-71.872;2022-09-24T15:10:53;6.15;;;0.85;;
46054;SDS011;31788;6.954;-71.872;2022-09-24T15:13:22;9.05;;;0.80;;
46054;SDS011;31788;6.954;-71.872;2022-09-24T15:16:14;5.50;;;0.80;;
46054;SDS011;31788;6.954;-71.872;2022-09-24T15:19:13;2.30;;;0.70;;
46054;SDS011;31788;6.954;-71.872;2022-09-24T15:21:47;5.53;;;0.80;;
46054;SDS011;31788;6.954;-71.872;2022-09-24T15:24:16;1.70;;;0.60;;
46054;SDS011;31788;6.954;-71.872;2022-09-24T15:26:45;3.60;;;0.93;;
46054;SDS011;31788;6.954;-71.872;2022-09-24T15:29:17;1.50;;;0.95;;
46054;SDS011;31788;6.954;-71.872;2022-09-24T15:31:48;2.33;;;0.93;;
46054;SDS011;31788;6.954;-71.872;2022-09-24T15:34:15;3.28;;;0.90;;
46054;SDS011;31788;6.954;-71.872;2022-09-24T15:36:42;3.50;;;1.20;;
46054;SDS011;31788;6.954;-71.872;2022-09-24T15:39:09;3.85;;;1.60;;
46054;SDS011;31788;6.954;-71.872;2022-09-24T15:41:36;3.05;;;1.45;;
46054;SDS011;31788;6.954;-71.872;2022-09-24T15:44:04;2.55;;;1.50;;
46054;SDS011;31788;6.954;-71.872;2022-09-24T15:46:35;3.58;;;1.60;;
46054;SDS011;31788;6.954;-71.872;2022-09-24T15:49:02;2.67;;;1.40;;
46054;SDS011;31788;6.954;-71.872;2022-09-24T15:51:30;4.22;;;1.38;;
46054;SDS011;31788;6.954;-71.872;2022-09-24T15:53:57;15.35;;;2.92;;
46054;SDS011;31788;6.954;-71.872;2022-09-24T15:56:23;7.28;;;2.10;;
46054;SDS011;31788;6.954;-71.872;2022-09-24T15:58:50;3.90;;;2.13;;
46054;SDS011;31788;6.954;-71.872;2022-09-24T16:01:16;5.47;;;2.60;;
46054;SDS011;31788;6.954;-71.872;2022-09-24T16:03:43;5.80;;;2.20;;
46054;SDS011;31788;6.954;-71.872;2022-09-24T16:06:10;7.43;;;3.13;;
46054;SDS011;31788;6.954;-71.872;2022-09-24T16:08:39;6.38;;;2.97;;
46054;SDS011;31788;6.954;-71.872;2022-09-24T16:11:07;5.05;;;2.30;;
46054;SDS011;31788;6.954;-71.872;2022-09-24T16:13:33;6.88;;;2.33;;
46054;SDS011;31788;6.954;-71.872;2022-09-24T16:16:00;4.32;;;2.28;;
46054;SDS011;31788;6.954;-71.872;2022-09-24T16:18:30;7.93;;;4.03;;
46054;SDS011;31788;6.954;-71.872;2022-09-24T16:20:57;7.50;;;5.70;;
46054;SDS011;31788;6.954;-71.872;2022-09-24T16:23:23;12.50;;;3.58;;
46054;SDS011;31788;6.954;-71.872;2022-09-24T16:25:54;4.57;;;2.70;;
46054;SDS011;31788;6.954;-71.872;2022-09-24T16:28:22;5.95;;;3.80;;
46054;SDS011;31788;6.954;-71.872;2022-09-24T16:30:50;7.10;;;3.80;;
46054;SDS011;31788;6.954;-71.872;2022-09-24T16:33:17;10.68;;;4.78;;
46054;SDS011;31788;6.954;-71.872;2022-09-24T16:35:45;43.90;;;6.00;;
46054;SDS011;31788;6.954;-71.872;2022-09-24T16:38:11;11.00;;;3.78;;
46054;SDS011;31788;6.954;-71.872;2022-09-24T16:40:38;84.45;;;7.10;;
46054;SDS011;31788;6.954;-71.872;2022-09-24T16:43:05;7.80;;;3.60;;
46054;SDS011;31788;6.954;-71.872;2022-09-24T16:45:31;8.20;;;3.10;;
46054;SDS011;31788;6.954;-71.872;2022-09-24T16:47:58;73.32;;;6.57;;
46054;SDS011;31788;6.954;-71.872;2022-09-24T16:50:25;14.95;;;3.35;;
46054;SDS011;31788;6.954;-71.872;2022-09-24T16:52:52;9.93;;;2.42;;
46054;SDS011;31788;6.954;-71.872;2022-09-24T16:55:22;6.53;;;2.50;;
46054;SDS011;31788;6.954;-71.872;2022-09-24T16:57:50;7.05;;;2.00;;
46054;SDS011;31788;6.954;-71.872;2022-09-24T17:00:17;4.67;;;2.00;;
46054;SDS011;31788;6.954;-71.872;2022-09-24T17:02:44;6.97;;;1.80;;
46054;SDS011;31788;6.954;-71.872;2022-09-24T17:05:11;18.43;;;2.90;;
46054;SDS011;31788;6.954;-71.872;2022-09-24T17:07:38;6.38;;;1.88;;
46054;SDS011;31788;6.954;-71.872;2022-09-24T17:10:04;4.15;;;1.70;;
46054;SDS011;31788;6.954;-71.872;2022-09-24T17:12:43;6.43;;;1.80;;
46054;SDS011;31788;6.954;-71.872;2022-09-24T17:15:11;21.17;;;2.45;;
46054;SDS011;31788;6.954;-71.872;2022-09-24T17:17:42;12.25;;;1.90;;
46054;SDS011;31788;6.954;-71.872;2022-09-24T17:20:09;13.02;;;2.58;;
46054;SDS011;31788;6.954;-71.872;2022-09-24T17:22:36;12.13;;;2.08;;
46054;SDS011;31788;6.954;-71.872;2022-09-24T17:25:03;22.77;;;2.38;;
46054;SDS011;31788;6.954;-71.872;2022-09-24T17:27:31;8.38;;;1.90;;
46054;SDS011;31788;6.954;-71.872;2022-09-24T17:30:02;8.88;;;1.70;;
46054;SDS011;31788;6.954;-71.872;2022-09-24T17:32:30;6.45;;;1.80;;
46054;SDS011;31788;6.954;-71.872;2022-09-24T17:34:56;5.75;;;1.50;;
46054;SDS011;31788;6.954;-71.872;2022-09-24T17:37:23;5.43;;;1.58;;
46054;SDS011;31788;6.954;-71.872;2022-09-24T17:39:51;6.78;;;1.50;;
46054;SDS011;31788;6.954;-71.872;2022-09-24T17:42:18;6.05;;;1.60;;